Time;durP1;ratioP1;P1;durP2;ratioP2;P2;SDS_P1;SDS_P2;PMS_P1;PMS_P2;Temp;Humidity;BMP_temperature;BMP_pressure;BME280_temperature;BME280_humidity;BME280_pressure;Samples;Min_cycle;Max_cycle;Signal;HPM_P1;HPM_P2
2022/11/26 00:04:58;;;;;;;4.10;2.30;;;;;;;-9.93;95.57;102633.66;10563128;28;20036;-73
2022/11/26 00:10:01;;;;;;;3.85;2.70;;;;;;;-10.04;95.00;102632.59;10561531;28;20048;-73
2022/11/26 00:15:18;;;;;;;4.05;2.80;;;;;;;-10.12;94.53;102639.31;10561676;28;20044;-73
2022/11/26 00:20:23;;;;;;;4.07;2.43;;;;;;;-10.25;94.81;102638.41;10559386;28;20051;-73
2022/11/26 00:25:39;;;;;;;5.68;2.70;;;;;;;-10.37;94.12;102637.41;10569367;28;20059;-74
2022/11/26 00:30:41;;;;;;;4.18;2.30;;;;;;;-10.41;94.32;102634.09;10563805;28;20040;-73
2022/11/26 00:35:45;;;;;;;3.20;2.10;;;;;;;-10.45;93.90;102639.69;10560304;28;20048;-73
2022/11/26 00:40:47;;;;;;;5.25;2.42;;;;;;;-10.46;93.50;102643.28;10559920;28;20043;-73
2022/11/26 00:45:50;;;;;;;3.17;2.40;;;;;;;-10.46;94.00;102630.00;10562857;28;20040;-73
2022/11/26 00:50:52;;;;;;;3.33;1.90;;;;;;;-10.49;93.91;102636.38;10562636;28;21237;-74
2022/11/26 00:55:54;;;;;;;3.95;2.90;;;;;;;-10.50;93.71;102637.31;10560990;28;20083;-74
2022/11/26 01:00:58;;;;;;;3.55;2.60;;;;;;;-10.48;94.01;102631.91;10561916;28;20774;-74
2022/11/26 01:06:00;;;;;;;5.28;2.90;;;;;;;-10.48;93.59;102643.38;10559914;28;20055;-73
2022/11/26 01:11:04;;;;;;;3.53;2.80;;;;;;;-10.49;94.35;102643.47;10555989;28;20741;-73
2022/11/26 01:16:18;;;;;;;3.42;2.70;;;;;;;-10.45;94.05;102659.09;10556796;28;20457;-73
2022/11/26 01:21:22;;;;;;;4.43;2.47;;;;;;;-10.50;93.85;102670.97;10558621;28;20040;-73
2022/11/26 01:26:27;;;;;;;3.72;2.50;;;;;;;-10.60;94.43;102656.53;10556503;28;20402;-73
2022/11/26 01:31:33;;;;;;;4.07;2.80;;;;;;;-10.53;93.79;102655.22;10549367;28;20050;-73
2022/11/26 01:36:38;;;;;;;5.07;3.92;;;;;;;-10.52;94.34;102656.94;10556617;28;20048;-73
2022/11/26 01:42:04;;;;;;;7.75;5.40;;;;;;;-10.54;94.38;102661.50;10563882;28;20130;-74
2022/11/26 01:47:24;;;;;;;8.00;5.32;;;;;;;-10.50;93.72;102655.03;10550455;28;21006;-72
2022/11/26 01:52:26;;;;;;;7.50;5.10;;;;;;;-10.49;93.83;102651.44;10564704;28;20165;-73
2022/11/26 01:57:32;;;;;;;9.82;5.95;;;;;;;-10.45;93.75;102671.50;10570115;28;20059;-73
2022/11/26 02:02:35;;;;;;;9.02;5.18;;;;;;;-10.48;93.56;102669.06;10572077;28;20451;-73
2022/11/26 02:07:37;;;;;;;8.80;5.00;;;;;;;-10.53;93.97;102663.19;10543918;28;20048;-74
2022/11/26 02:12:41;;;;;;;6.60;4.05;;;;;;;-10.53;94.20;102660.53;10552720;28;20044;-74
2022/11/26 02:18:12;;;;;;;4.78;3.78;;;;;;;-10.66;93.97;102661.28;10550592;28;20430;-73
2022/11/26 02:23:33;;;;;;;4.70;3.60;;;;;;;-10.72;93.50;102666.97;10552854;28;20047;-74
2022/11/26 02:29:02;;;;;;;6.93;4.10;;;;;;;-10.73;93.55;102659.97;10560416;28;20055;-74
2022/11/26 02:34:16;;;;;;;6.35;3.95;;;;;;;-10.75;94.07;102661.00;10551746;28;20040;-73
2022/11/26 02:39:24;;;;;;;4.97;2.47;;;;;;;-10.73;93.37;102665.28;10538359;28;20036;-72
2022/11/26 02:44:42;;;;;;;4.95;2.95;;;;;;;-10.77;93.48;102671.69;10567329;28;20044;-72
2022/11/26 02:49:45;;;;;;;6.33;3.53;;;;;;;-10.83;94.37;102669.41;10559986;28;20059;-72
2022/11/26 02:54:48;;;;;;;5.45;3.15;;;;;;;-10.96;93.39;102674.59;10566196;28;20576;-72
2022/11/26 02:59:50;;;;;;;3.95;2.78;;;;;;;-11.07;93.35;102687.66;10561248;28;20040;-72
2022/11/26 03:04:55;;;;;;;4.10;2.42;;;;;;;-11.12;94.00;102694.16;10567502;28;20055;-73
2022/11/26 03:10:27;;;;;;;3.88;2.70;;;;;;;-11.13;93.63;102676.53;10567454;28;20048;-73
2022/11/26 03:15:30;;;;;;;5.00;3.17;;;;;;;-11.13;94.46;102681.84;10541430;28;20047;-74
2022/11/26 03:20:32;;;;;;;2.70;1.98;;;;;;;-11.04;94.67;102679.50;10556796;28;20047;-73
2022/11/26 03:25:35;;;;;;;5.70;3.25;;;;;;;-10.99;94.76;102690.69;10572908;28;20191;-73
2022/11/26 03:30:37;;;;;;;5.55;2.67;;;;;;;-10.92;94.91;102677.94;10577600;28;20064;-73
2022/11/26 03:35:39;;;;;;;4.35;2.38;;;;;;;-10.83;94.50;102687.97;10576735;28;20048;-73
2022/11/26 03:40:42;;;;;;;4.90;2.92;;;;;;;-10.81;94.40;102688.72;10556646;28;20048;-73
2022/11/26 03:45:45;;;;;;;6.88;3.55;;;;;;;-10.82;94.50;102699.44;10566577;28;20680;-74
2022/11/26 03:50:47;;;;;;;3.58;2.28;;;;;;;-10.75;94.64;102688.38;10563536;28;20028;-72
2022/11/26 03:55:49;;;;;;;6.32;2.90;;;;;;;-10.68;95.04;102689.72;10557026;28;20047;-73
2022/11/26 04:00:52;;;;;;;3.70;2.70;;;;;;;-10.71;94.37;102683.75;10573510;28;20036;-74
2022/11/26 04:05:54;;;;;;;5.35;3.05;;;;;;;-10.73;94.17;102681.19;10566885;28;20538;-74
2022/11/26 04:10:57;;;;;;;5.07;3.20;;;;;;;-10.75;94.58;102687.53;10575910;28;20040;-74
2022/11/26 04:16:00;;;;;;;6.63;2.95;;;;;;;-10.78;94.53;102699.16;10572897;28;20047;-73
2022/11/26 04:21:06;;;;;;;4.18;2.63;;;;;;;-10.83;94.39;102695.94;10563747;28;20031;-74
2022/11/26 04:26:08;;;;;;;7.20;2.55;;;;;;;-10.83;93.42;102701.22;10568195;28;20048;-74
2022/11/26 04:31:11;;;;;;;8.25;3.60;;;;;;;-10.84;94.21;102702.19;10569981;28;20048;-73
2022/11/26 04:36:13;;;;;;;5.35;3.60;;;;;;;-10.99;93.35;102696.00;10551712;28;20077;-74
2022/11/26 04:41:15;;;;;;;5.80;3.50;;;;;;;-11.04;92.86;102715.78;10573375;28;20047;-74
2022/11/26 04:46:17;;;;;;;6.60;3.28;;;;;;;-11.06;92.41;102707.06;10574475;28;20064;-73
2022/11/26 04:51:19;;;;;;;6.82;3.63;;;;;;;-11.13;92.70;102713.66;10573906;28;20040;-73
2022/11/26 04:56:22;;;;;;;8.20;3.92;;;;;;;-11.12;91.69;102718.00;10573414;28;20047;-73
2022/11/26 05:01:24;;;;;;;6.00;3.80;;;;;;;-11.26;90.99;102709.09;10542360;28;20048;-73
2022/11/26 05:06:26;;;;;;;8.27;4.30;;;;;;;-11.41;89.93;102736.47;10554633;28;20059;-74
2022/11/26 05:11:29;;;;;;;11.68;4.40;;;;;;;-11.53;90.21;102721.25;10559410;28;20060;-74
2022/11/26 05:16:32;;;;;;;9.23;4.10;;;;;;;-11.64;89.87;102703.31;10542860;28;20039;-73
2022/11/26 05:21:38;;;;;;;10.15;4.43;;;;;;;-11.67;89.48;102695.53;10572207;28;20048;-74
2022/11/26 05:26:40;;;;;;;7.45;4.00;;;;;;;-11.67;89.11;102697.34;10572607;28;20486;-74
2022/11/26 05:31:47;;;;;;;11.63;5.32;;;;;;;-11.71;89.10;102711.69;10572079;28;20068;-73
2022/11/26 05:36:50;;;;;;;10.30;4.90;;;;;;;-11.80;89.47;102714.88;10573170;28;20077;-73
2022/11/26 05:41:52;;;;;;;8.60;3.15;;;;;;;-11.85;88.85;102709.84;10572457;28;20063;-74
2022/11/26 05:46:54;;;;;;;8.10;4.07;;;;;;;-11.87;88.92;102706.44;10572486;28;20055;-73
2022/11/26 05:51:56;;;;;;;9.60;3.78;;;;;;;-11.90;88.35;102736.59;10570306;28;20054;-73
2022/11/26 05:56:58;;;;;;;5.90;2.10;;;;;;;-11.88;88.25;102723.25;10571474;28;20070;-73
2022/11/26 06:02:05;;;;;;;10.88;3.85;;;;;;;-11.88;88.25;102729.41;10571920;28;20051;-74
2022/11/26 06:07:07;;;;;;;10.43;4.07;;;;;;;-11.92;88.50;102750.84;10571300;28;20090;-74
2022/11/26 06:12:09;;;;;;;7.72;3.90;;;;;;;-11.95;88.22;102749.22;10616533;27;20043;-74
2022/11/26 06:17:11;;;;;;;7.65;3.97;;;;;;;-12.00;87.46;102748.59;10581194;27;20055;-73
2022/11/26 06:27:42;;;;;;;11.73;3.88;;;;;;;-12.02;87.87;102745.19;10631827;27;20452;-74
2022/11/26 06:32:48;;;;;;;11.23;4.45;;;;;;;-11.98;87.73;102744.06;10616958;27;20047;-73
2022/11/26 06:37:50;;;;;;;9.15;3.20;;;;;;;-11.96;87.85;102760.75;10618885;27;20058;-73
2022/11/26 06:42:53;;;;;;;12.25;4.60;;;;;;;-11.98;87.89;102746.72;10636154;27;20055;-73
2022/11/26 06:47:56;;;;;;;9.95;4.22;;;;;;;-12.01;87.43;102757.47;10629910;27;20050;-74
2022/11/26 06:52:58;;;;;;;8.68;3.90;;;;;;;-11.96;87.14;102757.25;10633182;27;20051;-75
2022/11/26 06:58:00;;;;;;;7.53;3.50;;;;;;;-11.98;86.82;102777.63;10631386;27;20058;-74
2022/11/26 07:03:03;;;;;;;11.48;4.38;;;;;;;-12.01;87.14;102768.06;10589603;27;20031;-73
2022/11/26 07:08:05;;;;;;;10.13;4.10;;;;;;;-11.64;87.21;102766.88;10616809;27;20040;-74
2022/11/26 07:13:07;;;;;;;13.30;5.40;;;;;;;-11.28;86.68;102771.91;10635093;27;20031;-74
2022/11/26 07:18:09;;;;;;;8.93;4.15;;;;;;;-11.01;85.45;102768.59;10634544;27;20416;-75
2022/11/26 07:28:39;;;;;;;10.13;4.57;;;;;;;-10.65;83.44;102777.03;10626574;28;20047;-74
2022/11/26 07:33:46;;;;;;;8.80;4.53;;;;;;;-10.55;82.28;102773.84;10630859;28;20413;-75
2022/11/26 07:38:48;;;;;;;12.00;4.45;;;;;;;-10.37;82.12;102759.47;10634888;28;20054;-75
2022/11/26 07:43:51;;;;;;;8.13;4.28;;;;;;;-10.12;81.31;102756.13;10580581;28;20550;-74
2022/11/26 07:48:54;;;;;;;10.65;4.47;;;;;;;-10.05;79.94;102749.50;10653453;28;20047;-74
2022/11/26 07:53:58;;;;;;;9.88;5.18;;;;;;;-9.86;79.88;102751.84;10652716;28;20051;-73
2022/11/26 07:59:01;;;;;;;10.23;4.25;;;;;;;-9.60;79.57;102756.34;10602983;28;20039;-75
2022/11/26 08:04:05;;;;;;;9.95;4.53;;;;;;;-9.39;78.74;102764.72;10609103;28;20035;-73
2022/11/26 08:09:11;;;;;;;12.90;4.30;;;;;;;-9.04;78.34;102762.44;10591811;28;20039;-75
2022/11/26 08:14:13;;;;;;;6.75;3.35;;;;;;;-9.45;77.35;102781.09;10601743;27;20070;-74
2022/11/26 08:19:15;;;;;;;10.93;4.93;;;;;;;-9.29;77.24;102780.94;10621349;27;20046;-72
2022/11/26 08:29:49;;;;;;;4.03;2.87;;;;;;;-10.31;79.06;102787.44;10623914;27;20074;-73
2022/11/26 08:34:52;;;;;;;12.27;4.10;;;;;;;-10.48;79.70;102781.34;10600966;28;20058;-73
2022/11/26 08:39:54;;;;;;;10.93;5.30;;;;;;;-10.68;79.97;102785.19;10587077;28;20418;-74
2022/11/26 08:44:56;;;;;;;9.70;4.30;;;;;;;-10.82;81.20;102797.53;10615224;28;20044;-73
2022/11/26 08:49:59;;;;;;;13.27;4.47;;;;;;;-10.87;80.95;102789.88;10616406;28;20053;-73
2022/11/26 08:55:01;;;;;;;11.63;5.18;;;;;;;-10.83;81.84;102790.53;10616828;28;20078;-75
2022/11/26 09:00:05;;;;;;;7.05;3.55;;;;;;;-10.80;81.75;102788.56;10658639;27;20039;-73
2022/11/26 09:05:07;;;;;;;10.27;4.10;;;;;;;-10.85;82.54;102785.31;10617180;27;20050;-73
2022/11/26 09:10:10;;;;;;;10.57;4.22;;;;;;;-10.88;82.48;102797.91;10643486;27;20031;-74
2022/11/26 09:15:16;;;;;;;8.82;4.10;;;;;;;-10.88;82.79;102787.31;10639675;27;20051;-74
2022/11/26 09:20:18;;;;;;;7.35;3.60;;;;;;;-10.83;82.98;102780.78;10646192;27;20063;-73
2022/11/26 09:25:20;;;;;;;10.23;4.35;;;;;;;-10.75;83.53;102778.56;10596024;28;20035;-73
2022/11/26 09:30:23;;;;;;;10.27;5.40;;;;;;;-10.78;82.95;102765.44;10637784;27;20039;-75
2022/11/26 09:35:25;;;;;;;9.43;3.60;;;;;;;-10.77;82.99;102758.34;10657868;27;20054;-73
2022/11/26 09:40:39;;;;;;;7.93;4.10;;;;;;;-10.68;82.96;102790.50;10625232;27;20541;-75
2022/11/26 09:45:48;;;;;;;7.55;3.90;;;;;;;-10.68;84.09;102769.28;10623283;27;20058;-74
2022/11/26 09:51:03;;;;;;;7.88;4.10;;;;;;;-10.61;83.34;102774.19;10595441;27;20051;-74
2022/11/26 09:56:10;;;;;;;8.70;4.43;;;;;;;-10.59;84.07;102788.22;10604274;27;20448;-74
2022/11/26 10:01:22;;;;;;;7.97;5.05;;;;;;;-10.53;83.65;102794.03;10562468;28;20043;-74
2022/11/26 10:06:36;;;;;;;8.68;3.85;;;;;;;-10.58;84.11;102795.28;10584827;28;20040;-74
2022/11/26 10:12:00;;;;;;;8.65;4.53;;;;;;;-10.58;83.50;102793.47;10601530;27;20494;-73
2022/11/26 10:17:30;;;;;;;6.70;2.80;;;;;;;-10.54;84.04;102796.78;10593547;27;20035;-73
2022/11/26 10:22:37;;;;;;;8.15;3.70;;;;;;;-10.45;84.43;102798.88;10610655;28;20042;-74
2022/11/26 10:27:41;;;;;;;10.70;4.13;;;;;;;-10.38;84.47;102824.97;10596432;28;20063;-73
2022/11/26 10:32:44;;;;;;;6.45;3.67;;;;;;;-10.41;83.61;102814.53;10609069;27;20050;-73
2022/11/26 10:37:47;;;;;;;7.63;3.67;;;;;;;-10.40;84.06;102816.25;10597551;28;20421;-73
2022/11/26 10:43:00;;;;;;;7.15;3.13;;;;;;;-10.36;83.50;102808.94;10609836;28;20047;-73
2022/11/26 10:48:25;;;;;;;11.18;4.53;;;;;;;-10.35;83.85;102805.34;10606746;27;20031;-74
2022/11/26 10:53:30;;;;;;;8.48;3.72;;;;;;;-10.34;84.40;102822.97;10615795;27;20035;-74
2022/11/26 10:58:39;;;;;;;8.50;4.60;;;;;;;-10.29;83.83;102828.00;10593255;28;20043;-74
2022/11/26 11:03:50;;;;;;;4.72;2.60;;;;;;;-10.25;84.58;102825.06;10609914;28;20055;-74
2022/11/26 11:08:53;;;;;;;9.80;3.83;;;;;;;-10.22;84.24;102813.44;10593288;28;20433;-74
2022/11/26 11:13:56;;;;;;;8.50;3.55;;;;;;;-10.19;83.63;102816.72;10590254;28;20032;-75
2022/11/26 11:19:10;;;;;;;9.00;3.92;;;;;;;-10.22;83.78;102826.72;10608854;28;20044;-73
2022/11/26 11:24:25;;;;;;;9.32;3.47;;;;;;;-10.23;83.81;102822.34;10585138;28;20501;-73
2022/11/26 11:29:27;;;;;;;7.40;4.10;;;;;;;-10.23;84.45;102817.88;10597689;28;20047;-74
2022/11/26 11:34:33;;;;;;;7.07;3.75;;;;;;;-10.24;84.60;102807.34;10607707;28;20506;-74
2022/11/26 11:39:36;;;;;;;3.90;2.25;;;;;;;-10.23;84.04;102828.50;10606608;28;20036;-73
2022/11/26 11:44:43;;;;;;;8.38;3.45;;;;;;;-10.19;83.98;102814.06;10636144;27;20413;-73
2022/11/26 11:50:04;;;;;;;7.10;3.13;;;;;;;-10.17;84.04;102822.78;10596848;28;20043;-74
2022/11/26 11:55:12;;;;;;;6.70;3.85;;;;;;;-10.14;84.51;102827.03;10625703;27;20036;-74
2022/11/26 12:00:19;;;;;;;7.95;3.42;;;;;;;-10.17;83.83;102813.97;10630214;27;20043;-74
2022/11/26 12:05:42;;;;;;;4.15;2.63;;;;;;;-10.20;84.00;102817.66;10567267;28;20036;-75
2022/11/26 12:11:19;;;;;;;4.57;1.83;;;;;;;-10.21;83.52;102810.69;10599730;28;20032;-74
2022/11/26 12:16:23;;;;;;;8.45;2.83;;;;;;;-10.17;83.96;102822.78;10618208;27;20066;-75
2022/11/26 12:21:32;;;;;;;4.20;2.42;;;;;;;-10.22;84.41;102816.94;10597544;27;20514;-74
2022/11/26 12:26:39;;;;;;;5.95;1.92;;;;;;;-10.26;84.36;102823.34;10595429;28;20051;-76
2022/11/26 12:31:48;;;;;;;1.08;1.05;;;;;;;-10.25;84.06;102825.06;10582514;27;20051;-75
2022/11/26 12:37:11;;;;;;;4.63;1.92;;;;;;;-10.23;84.21;102817.88;10595765;27;20054;-75
2022/11/26 12:42:40;;;;;;;1.85;1.33;;;;;;;-10.24;84.64;102810.84;10619229;27;20408;-76
2022/11/26 12:47:48;;;;;;;7.32;3.00;;;;;;;-10.29;84.27;102798.81;10605028;27;20129;-75
2022/11/26 12:52:56;;;;;;;5.17;2.17;;;;;;;-10.31;84.51;102812.19;10563683;28;20066;-74
2022/11/26 12:58:40;;;;;;;4.05;2.22;;;;;;;-10.29;84.96;102828.84;10600217;27;20052;-74
2022/11/26 13:03:42;;;;;;;5.97;2.65;;;;;;;-10.25;84.95;102824.22;10584871;28;20052;-75
2022/11/26 13:08:49;;;;;;;5.95;2.70;;;;;;;-10.26;84.77;102831.31;10619686;27;20497;-77
2022/11/26 13:14:16;;;;;;;2.85;1.73;;;;;;;-10.24;85.10;102829.44;10619389;27;20036;-76
2022/11/26 13:19:35;;;;;;;9.07;3.67;;;;;;;-10.25;84.48;102837.47;10582796;27;20043;-72
2022/11/26 13:24:56;;;;;;;5.82;3.28;;;;;;;-10.30;84.24;102837.75;10573994;28;20044;-72
2022/11/26 13:30:20;;;;;;;4.85;2.67;;;;;;;-10.37;84.71;102837.28;10613966;28;20044;-72
2022/11/26 13:35:48;;;;;;;4.25;1.30;;;;;;;-10.51;84.59;102849.66;10604613;27;20168;-73
2022/11/26 13:41:12;;;;;;;8.55;4.45;;;;;;;-10.53;84.47;102846.25;10558941;28;20047;-72
2022/11/26 13:46:36;;;;;;;1.15;1.05;;;;;;;-10.51;84.83;102844.34;10543148;28;20032;-74
2022/11/26 13:51:44;;;;;;;4.80;2.70;;;;;;;-10.49;84.30;102842.47;10609857;28;20058;-74
2022/11/26 13:56:47;;;;;;;7.93;3.43;;;;;;;-10.51;84.92;102842.56;10609340;27;20048;-73
2022/11/26 14:01:49;;;;;;;6.38;2.65;;;;;;;-10.43;84.61;102847.41;10610007;28;20066;-74
2022/11/26 14:07:04;;;;;;;7.13;3.45;;;;;;;-10.47;84.96;102853.84;10591170;28;20047;-74
2022/11/26 14:12:06;;;;;;;1.52;1.42;;;;;;;-10.54;84.96;102839.22;10609170;28;20035;-74
2022/11/26 14:17:25;;;;;;;6.28;3.47;;;;;;;-10.60;84.97;102839.56;10591758;28;20035;-74
2022/11/26 14:22:35;;;;;;;8.75;3.38;;;;;;;-10.64;84.67;102841.56;10593572;27;20050;-74
2022/11/26 14:27:52;;;;;;;5.65;3.35;;;;;;;-10.67;85.49;102855.84;10605336;28;20032;-73
2022/11/26 14:33:00;;;;;;;5.10;2.47;;;;;;;-10.67;85.04;102855.84;10610062;28;20055;-74
2022/11/26 14:38:05;;;;;;;7.45;2.67;;;;;;;-10.70;85.00;102868.44;10581455;28;20051;-74
2022/11/26 14:43:18;;;;;;;3.70;2.17;;;;;;;-10.82;85.03;102862.03;10626501;27;20043;-74
2022/11/26 14:48:25;;;;;;;5.95;2.67;;;;;;;-10.90;85.54;102851.03;10613000;27;20489;-74
2022/11/26 14:53:30;;;;;;;3.30;2.28;;;;;;;-10.96;85.99;102843.41;10617142;27;20041;-73
2022/11/26 14:58:35;;;;;;;7.70;3.03;;;;;;;-10.99;85.32;102851.53;10618042;27;20508;-74
2022/11/26 15:03:38;;;;;;;4.70;2.58;;;;;;;-10.98;85.73;102855.91;10612299;27;20050;-74
2022/11/26 15:08:40;;;;;;;5.10;2.00;;;;;;;-10.97;86.24;102847.00;10620646;27;20065;-75
2022/11/26 15:13:44;;;;;;;2.88;1.42;;;;;;;-11.05;85.47;102866.00;10621492;27;20422;-74
2022/11/26 15:18:46;;;;;;;2.40;1.92;;;;;;;-11.14;86.07;102866.50;10629469;27;20056;-73
2022/11/26 15:23:49;;;;;;;5.82;2.42;;;;;;;-11.23;85.70;102855.59;10608225;27;20051;-74
2022/11/26 15:28:51;;;;;;;5.78;1.60;;;;;;;-11.26;85.71;102857.47;10587131;28;20035;-73
2022/11/26 15:33:53;;;;;;;2.38;1.30;;;;;;;-11.28;85.85;102854.06;10607617;28;20047;-74
2022/11/26 15:39:01;;;;;;;1.60;1.08;;;;;;;-11.27;86.02;102855.78;10589124;28;20047;-74
2022/11/26 15:44:04;;;;;;;3.65;1.55;;;;;;;-11.28;86.73;102854.06;10592812;28;20074;-74
2022/11/26 15:49:08;;;;;;;4.32;1.65;;;;;;;-11.29;86.60;102854.97;10575401;28;20043;-75
2022/11/26 15:54:24;;;;;;;3.67;2.25;;;;;;;-11.33;86.46;102845.50;10584753;28;20429;-75
2022/11/26 15:59:27;;;;;;;2.42;1.42;;;;;;;-11.37;87.39;102854.56;10593250;28;20062;-74
2022/11/26 16:04:38;;;;;;;6.97;3.13;;;;;;;-11.39;86.67;102851.13;10587735;28;20051;-73
2022/11/26 16:09:41;;;;;;;5.93;2.78;;;;;;;-11.41;86.63;102847.72;10573562;28;20040;-74
2022/11/26 16:14:43;;;;;;;2.63;1.55;;;;;;;-11.39;86.73;102837.91;10592774;28;20494;-74
2022/11/26 16:19:52;;;;;;;1.35;1.02;;;;;;;-11.39;86.64;102847.63;10576053;28;20052;-74
2022/11/26 16:25:04;;;;;;;6.05;2.70;;;;;;;-11.37;87.37;102849.25;10567779;28;20052;-73
2022/11/26 16:30:14;;;;;;;1.65;1.27;;;;;;;-11.39;87.67;102845.84;10568679;28;20052;-73
2022/11/26 16:35:16;;;;;;;1.25;0.82;;;;;;;-11.36;86.83;102845.66;10544530;28;20048;-75
2022/11/26 16:40:18;;;;;;;2.33;1.45;;;;;;;-11.37;87.69;102832.50;10575257;28;20060;-74
2022/11/26 16:45:21;;;;;;;6.25;3.42;;;;;;;-11.30;86.87;102847.97;10575868;28;20047;-73
2022/11/26 16:50:25;;;;;;;11.98;2.35;;;;;;;-11.39;87.63;102853.78;10575079;28;20032;-73
2022/11/26 16:55:27;;;;;;;4.38;2.40;;;;;;;-11.42;87.57;102846.00;10541639;28;20426;-74
2022/11/26 17:00:29;;;;;;;7.15;3.17;;;;;;;-11.47;87.20;102850.69;10574835;28;20059;-74
2022/11/26 17:05:31;;;;;;;10.05;3.90;;;;;;;-11.46;87.42;102844.44;10540104;28;20060;-73
2022/11/26 17:10:34;;;;;;;7.75;3.53;;;;;;;-11.46;87.01;102844.44;10573637;28;20071;-74
2022/11/26 17:15:36;;;;;;;8.25;3.95;;;;;;;-11.51;87.35;102853.59;10555806;28;20044;-74
2022/11/26 17:20:38;;;;;;;6.75;2.92;;;;;;;-11.59;87.58;102852.22;10578656;28;20399;-74
2022/11/26 17:25:45;;;;;;;9.15;5.32;;;;;;;-11.71;87.75;102854.69;10574216;27;20040;-74
2022/11/26 17:30:48;;;;;;;3.83;2.20;;;;;;;-11.77;87.96;102852.38;10582930;28;20055;-74
2022/11/26 17:35:54;;;;;;;6.78;2.30;;;;;;;-11.77;87.87;102852.38;10606623;28;20035;-75
2022/11/26 17:40:57;;;;;;;4.93;2.60;;;;;;;-11.74;88.57;102850.41;10614794;28;20036;-75
2022/11/26 17:46:03;;;;;;;6.57;3.25;;;;;;;-11.66;88.17;102847.34;10613058;28;20374;-74
2022/11/26 17:51:05;;;;;;;8.52;3.33;;;;;;;-11.61;88.76;102866.50;10596014;28;20397;-74
2022/11/26 17:56:19;;;;;;;5.68;2.40;;;;;;;-11.66;88.58;102850.84;10612695;28;20059;-74
2022/11/26 18:01:22;;;;;;;5.43;2.38;;;;;;;-11.67;88.11;102853.56;10612461;28;20043;-75
2022/11/26 18:06:40;;;;;;;5.50;2.53;;;;;;;-11.68;87.77;102854.50;10614472;28;20405;-75
2022/11/26 18:11:49;;;;;;;2.90;1.52;;;;;;;-11.72;87.79;102847.69;10595979;28;20044;-75
2022/11/26 18:16:51;;;;;;;1.48;1.38;;;;;;;-11.72;88.30;102852.97;10595440;28;20449;-74
2022/11/26 18:21:54;;;;;;;2.47;1.83;;;;;;;-11.77;88.16;102865.63;10613821;28;20522;-75
2022/11/26 18:26:57;;;;;;;2.65;1.65;;;;;;;-11.83;88.50;102866.81;10613740;28;20421;-74
2022/11/26 18:31:59;;;;;;;6.82;3.20;;;;;;;-11.80;88.43;102865.78;10582388;28;20040;-75
2022/11/26 18:37:01;;;;;;;4.30;2.33;;;;;;;-11.85;87.75;102859.88;10594430;28;20043;-75
2022/11/26 18:42:03;;;;;;;3.83;1.88;;;;;;;-11.87;88.53;102841.44;10613279;28;20059;-74
2022/11/26 18:47:05;;;;;;;4.45;1.98;;;;;;;-11.81;88.05;102864.94;10613367;28;20620;-73
2022/11/26 18:52:33;;;;;;;7.20;3.72;;;;;;;-11.83;87.92;102877.41;10594355;28;20442;-74
2022/11/26 18:58:20;;;;;;;6.93;3.33;;;;;;;-11.90;87.42;102865.44;10576946;28;20055;-75
2022/11/26 19:03:26;;;;;;;9.73;3.25;;;;;;;-11.95;88.34;102884.22;10612338;28;20417;-74
2022/11/26 19:08:30;;;;;;;3.05;1.45;;;;;;;-11.97;88.21;102877.28;10577518;28;20055;-75
2022/11/26 19:13:33;;;;;;;6.90;3.80;;;;;;;-11.92;87.90;102876.09;10596991;28;20043;-74
2022/11/26 19:18:35;;;;;;;3.05;1.70;;;;;;;-11.95;88.24;102872.78;10607778;28;20421;-74
2022/11/26 19:23:37;;;;;;;8.43;3.47;;;;;;;-11.92;88.21;102868.16;10596599;28;20039;-74
2022/11/26 19:28:40;;;;;;;4.50;2.63;;;;;;;-11.81;88.41;102864.06;10611677;28;20047;-75
2022/11/26 19:33:45;;;;;;;2.63;1.63;;;;;;;-11.85;88.08;102862.53;10610516;28;20051;-73
2022/11/26 19:38:47;;;;;;;2.08;1.98;;;;;;;-11.88;88.26;102867.06;10593592;28;20048;-74
2022/11/26 19:43:49;;;;;;;2.78;1.88;;;;;;;-11.92;88.06;102872.59;10593445;28;20059;-73
2022/11/26 19:48:52;;;;;;;3.67;2.20;;;;;;;-11.93;87.90;102879.69;10592408;28;20051;-74
2022/11/26 19:53:55;;;;;;;1.77;1.63;;;;;;;-11.95;87.89;102876.28;10611005;28;20043;-74
2022/11/26 19:59:00;;;;;;;1.42;0.63;;;;;;;-11.95;87.88;102873.63;10611050;28;20070;-74
2022/11/26 20:04:05;;;;;;;3.42;1.95;;;;;;;-11.89;87.65;102877.72;10593445;28;20040;-73
2022/11/26 20:09:10;;;;;;;1.50;1.17;;;;;;;-11.90;88.27;102890.13;10598910;28;20055;-74
2022/11/26 20:14:13;;;;;;;6.35;2.05;;;;;;;-11.90;88.03;102892.75;10618532;28;20416;-73
2022/11/26 20:19:16;;;;;;;4.68;2.60;;;;;;;-11.90;87.94;102882.16;10618913;28;20062;-74
2022/11/26 20:24:19;;;;;;;0.77;0.63;;;;;;;-11.84;87.50;102885.44;10608969;28;20036;-74
2022/11/26 20:29:21;;;;;;;3.05;2.05;;;;;;;-11.83;88.05;102901.22;10598866;28;20050;-73
2022/11/26 20:34:28;;;;;;;14.18;3.35;;;;;;;-11.80;87.78;102897.56;10599439;28;20044;-75
2022/11/26 20:39:31;;;;;;;3.22;2.00;;;;;;;-11.76;88.00;102894.66;10600654;28;20039;-73
2022/11/26 20:44:33;;;;;;;6.70;3.10;;;;;;;-11.74;87.71;102903.38;10581573;28;20044;-74
2022/11/26 20:49:38;;;;;;;3.35;2.30;;;;;;;-11.69;87.88;102893.38;10574584;28;20414;-73
2022/11/26 20:54:40;;;;;;;9.95;4.32;;;;;;;-11.65;87.74;102896.72;10610458;27;20039;-73
2022/11/26 20:59:42;;;;;;;10.68;4.43;;;;;;;-11.62;87.82;102896.56;10564192;27;20506;-73
2022/11/26 21:04:44;;;;;;;3.40;2.20;;;;;;;-11.62;87.61;102886.84;10603864;27;20501;-73
2022/11/26 21:09:47;;;;;;;12.68;4.65;;;;;;;-11.61;88.33;102887.69;10626234;27;20512;-74
2022/11/26 21:14:49;;;;;;;8.07;3.83;;;;;;;-11.60;87.54;102889.41;10541179;28;20425;-75
2022/11/26 21:19:51;;;;;;;10.23;4.80;;;;;;;-11.58;87.83;102903.41;10555950;28;20051;-73
2022/11/26 21:24:53;;;;;;;6.35;3.30;;;;;;;-11.62;88.15;102892.13;10611485;27;20036;-75
2022/11/26 21:30:00;;;;;;;11.88;3.90;;;;;;;-11.63;88.10;102889.53;10597031;28;20047;-75
2022/11/26 21:35:03;;;;;;;8.07;3.15;;;;;;;-11.61;87.88;102885.03;10615663;28;20032;-76
2022/11/26 21:40:06;;;;;;;8.38;3.33;;;;;;;-11.60;87.40;102876.16;10597257;27;20533;-75
2022/11/26 21:45:08;;;;;;;7.72;2.58;;;;;;;-11.60;88.00;102876.16;10615628;28;20046;-74
2022/11/26 21:50:14;;;;;;;10.05;4.03;;;;;;;-11.59;87.89;102872.56;10596274;27;20074;-76
2022/11/26 21:55:17;;;;;;;5.32;3.00;;;;;;;-11.60;87.52;102866.41;10596435;28;20329;-75
2022/11/26 22:05:46;;;;;;;8.00;4.40;;;;;;;-11.61;87.46;102863.84;10572411;28;20039;-74
2022/11/26 22:10:48;;;;;;;4.68;2.05;;;;;;;-11.61;87.80;102855.91;10610823;27;20051;-75
2022/11/26 22:15:50;;;;;;;7.32;2.78;;;;;;;-11.59;87.64;102867.28;10655977;27;20035;-73
2022/11/26 22:20:57;;;;;;;4.90;2.35;;;;;;;-11.63;87.60;102860.41;10625135;27;20036;-73
2022/11/26 22:25:59;;;;;;;9.23;5.15;;;;;;;-11.61;87.78;102866.50;10590722;27;20646;-73
2022/11/26 22:31:18;;;;;;;6.47;3.22;;;;;;;-11.59;88.21;102869.91;10610285;28;20050;-73
2022/11/26 22:36:20;;;;;;;;;;;;;;;-11.57;88.45;102868.91;10595583;28;20039;-73
2022/11/26 22:41:22;;;;;;;7.10;4.05;;;;;;;-11.57;88.32;102871.53;10587256;28;19924;-73
2022/11/26 22:46:25;;;;;;;8.82;3.33;;;;;;;-11.53;88.55;102866.94;10613727;27;20245;-78
2022/11/26 22:51:29;;;;;;;5.45;2.35;;;;;;;-11.43;88.45;102857.56;10592907;28;20050;-74
2022/11/26 22:56:37;;;;;;;2.35;1.52;;;;;;;-11.40;88.17;102859.19;10559863;27;20043;-74
2022/11/26 23:07:11;;;;;;;5.13;3.88;;;;;;;-11.39;88.62;102860.88;10611392;28;20532;-74
2022/11/26 23:12:19;;;;;;;7.97;3.60;;;;;;;-11.39;88.58;102856.44;10610138;28;20047;-75
2022/11/26 23:17:21;;;;;;;6.45;3.47;;;;;;;-11.29;88.75;102838.22;10604918;28;20056;-75
2022/11/26 23:22:23;;;;;;;6.90;3.22;;;;;;;-11.26;88.65;102846.03;10611556;28;20121;-74
2022/11/26 23:27:25;;;;;;;7.53;3.63;;;;;;;-11.30;88.97;102841.81;10611348;28;20043;-75
2022/11/26 23:32:27;;;;;;;7.35;4.07;;;;;;;-11.29;89.11;102849.66;10609777;28;20058;-75
2022/11/26 23:37:30;;;;;;;7.07;3.78;;;;;;;-11.23;89.10;102855.59;10607650;28;20063;-74
2022/11/26 23:42:33;;;;;;;4.72;2.95;;;;;;;-11.19;89.03;102847.38;10600539;28;20055;-75